sensor_id;sensor_type;location;lat;lon;timestamp;P1;durP1;ratioP1;P2;durP2;ratioP2
63567;SDS011;49715;42.386;20.434;2023-02-01T00:00:31;28.80;;;17.00;;
63567;SDS011;49715;42.386;20.434;2023-02-01T00:03:00;32.97;;;17.65;;
63567;SDS011;49715;42.386;20.434;2023-02-01T00:05:27;44.15;;;22.73;;
63567;SDS011;49715;42.386;20.434;2023-02-01T00:07:54;42.13;;;20.92;;
63567;SDS011;49715;42.386;20.434;2023-02-01T00:10:21;36.65;;;19.80;;
63567;SDS011;49715;42.386;20.434;2023-02-01T00:12:47;35.13;;;19.37;;
63567;SDS011;49715;42.386;20.434;2023-02-01T00:15:14;30.95;;;18.45;;
63567;SDS011;49715;42.386;20.434;2023-02-01T00:17:41;32.65;;;17.67;;
63567;SDS011;49715;42.386;20.434;2023-02-01T00:20:09;27.73;;;17.43;;
63567;SDS011;49715;42.386;20.434;2023-02-01T00:22:37;28.38;;;17.80;;
63567;SDS011;49715;42.386;20.434;2023-02-01T00:25:03;30.92;;;19.42;;
63567;SDS011;49715;42.386;20.434;2023-02-01T00:27:30;47.60;;;25.35;;
63567;SDS011;49715;42.386;20.434;2023-02-01T00:29:56;39.27;;;23.47;;
63567;SDS011;49715;42.386;20.434;2023-02-01T00:32:23;35.63;;;18.67;;
63567;SDS011;49715;42.386;20.434;2023-02-01T00:34:49;30.53;;;18.83;;
63567;SDS011;49715;42.386;20.434;2023-02-01T00:37:16;27.40;;;15.73;;
63567;SDS011;49715;42.386;20.434;2023-02-01T00:39:42;22.58;;;14.23;;
63567;SDS011;49715;42.386;20.434;2023-02-01T00:42:08;27.77;;;15.25;;
63567;SDS011;49715;42.386;20.434;2023-02-01T00:44:35;33.10;;;17.95;;
63567;SDS011;49715;42.386;20.434;2023-02-01T00:47:02;16.90;;;11.50;;
63567;SDS011;49715;42.386;20.434;2023-02-01T00:49:28;21.43;;;13.50;;
63567;SDS011;49715;42.386;20.434;2023-02-01T00:51:55;21.02;;;13.77;;
63567;SDS011;49715;42.386;20.434;2023-02-01T00:54:21;21.42;;;13.55;;
63567;SDS011;49715;42.386;20.434;2023-02-01T00:56:48;20.92;;;12.82;;
63567;SDS011;49715;42.386;20.434;2023-02-01T00:59:14;19.60;;;11.93;;
63567;SDS011;49715;42.386;20.434;2023-02-01T01:01:41;16.50;;;10.97;;
63567;SDS011;49715;42.386;20.434;2023-02-01T01:04:07;13.82;;;9.43;;
63567;SDS011;49715;42.386;20.434;2023-02-01T01:06:34;24.87;;;14.00;;
63567;SDS011;49715;42.386;20.434;2023-02-01T01:09:03;18.55;;;13.02;;
63567;SDS011;49715;42.386;20.434;2023-02-01T01:11:33;18.05;;;11.35;;
63567;SDS011;49715;42.386;20.434;2023-02-01T01:14:02;21.02;;;13.07;;
63567;SDS011;49715;42.386;20.434;2023-02-01T01:16:30;18.70;;;12.63;;
63567;SDS011;49715;42.386;20.434;2023-02-01T01:18:57;20.70;;;12.10;;
63567;SDS011;49715;42.386;20.434;2023-02-01T01:21:24;30.33;;;18.58;;
63567;SDS011;49715;42.386;20.434;2023-02-01T01:23:51;31.52;;;20.35;;
63567;SDS011;49715;42.386;20.434;2023-02-01T01:26:19;26.33;;;16.27;;
63567;SDS011;49715;42.386;20.434;2023-02-01T01:28:47;25.38;;;15.38;;
63567;SDS011;49715;42.386;20.434;2023-02-01T01:31:14;22.42;;;13.95;;
63567;SDS011;49715;42.386;20.434;2023-02-01T01:33:42;25.95;;;15.20;;
63567;SDS011;49715;42.386;20.434;2023-02-01T01:36:10;28.55;;;16.48;;
63567;SDS011;49715;42.386;20.434;2023-02-01T01:38:41;28.80;;;16.48;;
63567;SDS011;49715;42.386;20.434;2023-02-01T01:41:08;31.00;;;18.83;;
63567;SDS011;49715;42.386;20.434;2023-02-01T01:43:46;25.88;;;16.55;;
63567;SDS011;49715;42.386;20.434;2023-02-01T01:46:16;22.23;;;14.30;;
63567;SDS011;49715;42.386;20.434;2023-02-01T01:48:44;21.63;;;13.65;;
63567;SDS011;49715;42.386;20.434;2023-02-01T01:51:13;19.80;;;13.18;;
63567;SDS011;49715;42.386;20.434;2023-02-01T01:53:44;17.48;;;10.77;;
63567;SDS011;49715;42.386;20.434;2023-02-01T01:56:14;10.35;;;7.10;;
63567;SDS011;49715;42.386;20.434;2023-02-01T01:58:41;12.55;;;8.40;;
63567;SDS011;49715;42.386;20.434;2023-02-01T02:01:07;14.60;;;8.93;;
63567;SDS011;49715;42.386;20.434;2023-02-01T02:03:39;12.57;;;8.00;;
63567;SDS011;49715;42.386;20.434;2023-02-01T02:08:55;21.17;;;11.98;;
63567;SDS011;49715;42.386;20.434;2023-02-01T02:11:22;25.75;;;14.23;;
63567;SDS011;49715;42.386;20.434;2023-02-01T02:13:49;19.65;;;12.02;;
63567;SDS011;49715;42.386;20.434;2023-02-01T02:16:21;17.02;;;10.57;;
63567;SDS011;49715;42.386;20.434;2023-02-01T02:19:13;17.27;;;10.18;;
63567;SDS011;49715;42.386;20.434;2023-02-01T02:25:01;20.63;;;13.18;;
63567;SDS011;49715;42.386;20.434;2023-02-01T02:36:14;30.15;;;19.48;;
63567;SDS011;49715;42.386;20.434;2023-02-01T02:41:35;31.42;;;18.83;;
63567;SDS011;49715;42.386;20.434;2023-02-01T02:48:28;33.42;;;20.60;;
63567;SDS011;49715;42.386;20.434;2023-02-01T02:50:49;29.35;;;18.40;;
63567;SDS011;49715;42.386;20.434;2023-02-01T02:53:51;26.85;;;15.27;;
63567;SDS011;49715;42.386;20.434;2023-02-01T02:56:38;41.17;;;18.08;;
63567;SDS011;49715;42.386;20.434;2023-02-01T02:59:25;30.80;;;17.73;;
63567;SDS011;49715;42.386;20.434;2023-02-01T03:02:12;31.73;;;19.30;;
63567;SDS011;49715;42.386;20.434;2023-02-01T03:04:58;31.50;;;18.30;;
63567;SDS011;49715;42.386;20.434;2023-02-01T03:10:19;22.60;;;15.82;;
63567;SDS011;49715;42.386;20.434;2023-02-01T03:13:28;31.98;;;17.70;;
63567;SDS011;49715;42.386;20.434;2023-02-01T03:16:04;28.85;;;16.35;;
63567;SDS011;49715;42.386;20.434;2023-02-01T03:19:00;31.52;;;17.83;;
63567;SDS011;49715;42.386;20.434;2023-02-01T03:24:14;27.48;;;15.45;;
63567;SDS011;49715;42.386;20.434;2023-02-01T03:26:48;27.33;;;17.17;;
63567;SDS011;49715;42.386;20.434;2023-02-01T03:29:22;31.05;;;17.20;;
63567;SDS011;49715;42.386;20.434;2023-02-01T03:31:53;28.38;;;15.88;;
63567;SDS011;49715;42.386;20.434;2023-02-01T03:34:20;21.53;;;13.73;;
63567;SDS011;49715;42.386;20.434;2023-02-01T03:37:00;16.95;;;11.98;;
63567;SDS011;49715;42.386;20.434;2023-02-01T03:39:31;19.17;;;11.25;;
63567;SDS011;49715;42.386;20.434;2023-02-01T03:42:20;18.48;;;12.02;;
63567;SDS011;49715;42.386;20.434;2023-02-01T03:44:54;21.23;;;13.07;;
63567;SDS011;49715;42.386;20.434;2023-02-01T03:50:43;22.05;;;13.18;;
63567;SDS011;49715;42.386;20.434;2023-02-01T03:52:53;25.42;;;16.08;;
63567;SDS011;49715;42.386;20.434;2023-02-01T03:55:24;35.83;;;18.25;;
63567;SDS011;49715;42.386;20.434;2023-02-01T03:58:06;43.78;;;24.92;;
63567;SDS011;49715;42.386;20.434;2023-02-01T04:00:36;47.03;;;26.08;;
63567;SDS011;49715;42.386;20.434;2023-02-01T04:03:06;43.07;;;25.93;;
63567;SDS011;49715;42.386;20.434;2023-02-01T04:05:33;44.42;;;22.92;;
63567;SDS011;49715;42.386;20.434;2023-02-01T04:08:06;42.08;;;23.20;;
63567;SDS011;49715;42.386;20.434;2023-02-01T04:10:32;44.65;;;25.20;;
63567;SDS011;49715;42.386;20.434;2023-02-01T04:12:59;44.13;;;24.87;;
63567;SDS011;49715;42.386;20.434;2023-02-01T04:15:25;44.03;;;23.83;;
63567;SDS011;49715;42.386;20.434;2023-02-01T04:17:51;54.10;;;31.17;;
63567;SDS011;49715;42.386;20.434;2023-02-01T04:20:18;52.05;;;29.33;;
63567;SDS011;49715;42.386;20.434;2023-02-01T04:22:45;54.78;;;29.55;;
63567;SDS011;49715;42.386;20.434;2023-02-01T04:25:11;50.85;;;28.02;;
63567;SDS011;49715;42.386;20.434;2023-02-01T04:27:38;46.03;;;25.67;;
63567;SDS011;49715;42.386;20.434;2023-02-01T04:30:04;36.75;;;21.30;;
63567;SDS011;49715;42.386;20.434;2023-02-01T04:32:36;23.77;;;14.80;;
63567;SDS011;49715;42.386;20.434;2023-02-01T04:37:29;24.38;;;11.32;;
63567;SDS011;49715;42.386;20.434;2023-02-01T04:39:55;20.43;;;10.50;;
63567;SDS011;49715;42.386;20.434;2023-02-01T04:42:21;18.92;;;11.07;;
63567;SDS011;49715;42.386;20.434;2023-02-01T04:44:48;29.43;;;19.20;;
63567;SDS011;49715;42.386;20.434;2023-02-01T04:47:14;22.80;;;12.90;;
63567;SDS011;49715;42.386;20.434;2023-02-01T04:49:41;18.42;;;10.98;;
63567;SDS011;49715;42.386;20.434;2023-02-01T04:52:08;28.33;;;15.40;;
63567;SDS011;49715;42.386;20.434;2023-02-01T04:54:34;20.77;;;10.90;;
63567;SDS011;49715;42.386;20.434;2023-02-01T04:57:00;22.13;;;11.20;;
63567;SDS011;49715;42.386;20.434;2023-02-01T04:59:27;23.00;;;11.35;;
63567;SDS011;49715;42.386;20.434;2023-02-01T05:01:54;19.88;;;9.60;;
63567;SDS011;49715;42.386;20.434;2023-02-01T05:04:21;22.10;;;10.27;;
63567;SDS011;49715;42.386;20.434;2023-02-01T05:06:47;18.83;;;10.45;;
63567;SDS011;49715;42.386;20.434;2023-02-01T05:09:13;14.32;;;9.63;;
63567;SDS011;49715;42.386;20.434;2023-02-01T05:11:40;18.15;;;9.38;;
63567;SDS011;49715;42.386;20.434;2023-02-01T05:14:26;22.17;;;10.82;;
63567;SDS011;49715;42.386;20.434;2023-02-01T05:16:52;17.90;;;10.93;;
63567;SDS011;49715;42.386;20.434;2023-02-01T05:19:19;31.27;;;12.43;;
63567;SDS011;49715;42.386;20.434;2023-02-01T05:21:45;26.60;;;12.23;;
63567;SDS011;49715;42.386;20.434;2023-02-01T05:24:11;21.23;;;11.55;;
63567;SDS011;49715;42.386;20.434;2023-02-01T05:26:46;17.52;;;9.85;;
63567;SDS011;49715;42.386;20.434;2023-02-01T05:29:13;18.77;;;7.32;;
63567;SDS011;49715;42.386;20.434;2023-02-01T05:31:40;23.17;;;12.38;;
63567;SDS011;49715;42.386;20.434;2023-02-01T05:34:07;19.00;;;11.32;;
63567;SDS011;49715;42.386;20.434;2023-02-01T05:36:34;26.08;;;13.07;;
63567;SDS011;49715;42.386;20.434;2023-02-01T05:39:00;25.90;;;12.45;;
63567;SDS011;49715;42.386;20.434;2023-02-01T05:41:26;19.38;;;10.45;;
63567;SDS011;49715;42.386;20.434;2023-02-01T05:43:53;20.30;;;10.97;;
63567;SDS011;49715;42.386;20.434;2023-02-01T05:46:19;20.77;;;9.87;;
63567;SDS011;49715;42.386;20.434;2023-02-01T05:48:46;22.37;;;11.63;;
63567;SDS011;49715;42.386;20.434;2023-02-01T05:51:13;39.92;;;18.73;;
63567;SDS011;49715;42.386;20.434;2023-02-01T05:53:40;40.40;;;18.63;;
63567;SDS011;49715;42.386;20.434;2023-02-01T05:56:06;37.40;;;17.55;;
63567;SDS011;49715;42.386;20.434;2023-02-01T05:58:33;44.63;;;23.13;;
63567;SDS011;49715;42.386;20.434;2023-02-01T06:01:00;43.57;;;21.97;;
63567;SDS011;49715;42.386;20.434;2023-02-01T06:03:28;34.78;;;19.65;;
63567;SDS011;49715;42.386;20.434;2023-02-01T06:05:54;34.25;;;18.83;;
63567;SDS011;49715;42.386;20.434;2023-02-01T06:08:21;32.25;;;15.70;;
63567;SDS011;49715;42.386;20.434;2023-02-01T06:10:50;31.65;;;15.77;;
63567;SDS011;49715;42.386;20.434;2023-02-01T06:15:46;24.35;;;12.27;;
63567;SDS011;49715;42.386;20.434;2023-02-01T06:18:12;18.15;;;10.75;;
63567;SDS011;49715;42.386;20.434;2023-02-01T06:20:40;20.38;;;10.93;;
63567;SDS011;49715;42.386;20.434;2023-02-01T06:23:06;14.87;;;9.03;;
63567;SDS011;49715;42.386;20.434;2023-02-01T06:25:33;17.08;;;9.35;;
63567;SDS011;49715;42.386;20.434;2023-02-01T06:28:00;25.60;;;10.80;;
63567;SDS011;49715;42.386;20.434;2023-02-01T06:30:28;21.02;;;10.23;;
63567;SDS011;49715;42.386;20.434;2023-02-01T06:32:55;23.40;;;11.82;;
63567;SDS011;49715;42.386;20.434;2023-02-01T06:35:22;19.08;;;10.93;;
63567;SDS011;49715;42.386;20.434;2023-02-01T06:37:49;20.38;;;11.43;;
63567;SDS011;49715;42.386;20.434;2023-02-01T06:40:16;20.02;;;10.85;;
63567;SDS011;49715;42.386;20.434;2023-02-01T06:42:43;18.48;;;10.57;;
63567;SDS011;49715;42.386;20.434;2023-02-01T06:45:09;18.73;;;10.07;;
63567;SDS011;49715;42.386;20.434;2023-02-01T06:47:36;15.80;;;8.77;;
63567;SDS011;49715;42.386;20.434;2023-02-01T06:50:02;13.13;;;8.23;;
63567;SDS011;49715;42.386;20.434;2023-02-01T06:52:29;15.93;;;8.95;;
63567;SDS011;49715;42.386;20.434;2023-02-01T06:54:55;25.47;;;13.00;;
63567;SDS011;49715;42.386;20.434;2023-02-01T06:57:22;23.90;;;12.43;;
63567;SDS011;49715;42.386;20.434;2023-02-01T06:59:48;14.65;;;9.77;;
63567;SDS011;49715;42.386;20.434;2023-02-01T07:02:15;23.43;;;10.50;;
63567;SDS011;49715;42.386;20.434;2023-02-01T07:04:41;20.17;;;10.10;;
63567;SDS011;49715;42.386;20.434;2023-02-01T07:07:08;22.77;;;10.90;;
63567;SDS011;49715;42.386;20.434;2023-02-01T07:09:34;12.60;;;8.30;;
63567;SDS011;49715;42.386;20.434;2023-02-01T07:12:00;17.63;;;8.27;;
63567;SDS011;49715;42.386;20.434;2023-02-01T07:14:27;15.18;;;8.40;;
63567;SDS011;49715;42.386;20.434;2023-02-01T07:16:53;14.35;;;7.50;;
63567;SDS011;49715;42.386;20.434;2023-02-01T07:19:19;14.23;;;7.17;;
63567;SDS011;49715;42.386;20.434;2023-02-01T07:21:46;15.10;;;9.20;;
63567;SDS011;49715;42.386;20.434;2023-02-01T07:24:12;13.70;;;7.88;;
63567;SDS011;49715;42.386;20.434;2023-02-01T07:26:40;18.25;;;8.88;;
63567;SDS011;49715;42.386;20.434;2023-02-01T07:29:07;17.97;;;8.63;;
63567;SDS011;49715;42.386;20.434;2023-02-01T07:31:33;12.00;;;7.35;;
63567;SDS011;49715;42.386;20.434;2023-02-01T07:33:59;11.35;;;7.72;;
63567;SDS011;49715;42.386;20.434;2023-02-01T07:36:26;11.20;;;8.30;;
63567;SDS011;49715;42.386;20.434;2023-02-01T07:38:53;13.93;;;8.30;;
63567;SDS011;49715;42.386;20.434;2023-02-01T07:43:46;15.77;;;10.73;;
63567;SDS011;49715;42.386;20.434;2023-02-01T07:46:13;16.75;;;11.15;;
63567;SDS011;49715;42.386;20.434;2023-02-01T07:48:41;26.00;;;14.68;;
63567;SDS011;49715;42.386;20.434;2023-02-01T07:51:09;22.57;;;12.63;;
63567;SDS011;49715;42.386;20.434;2023-02-01T07:53:37;17.88;;;11.27;;
63567;SDS011;49715;42.386;20.434;2023-02-01T07:56:04;16.77;;;9.98;;
63567;SDS011;49715;42.386;20.434;2023-02-01T07:58:39;20.67;;;11.00;;
63567;SDS011;49715;42.386;20.434;2023-02-01T08:01:10;21.45;;;10.45;;
63567;SDS011;49715;42.386;20.434;2023-02-01T08:03:47;24.55;;;12.13;;
63567;SDS011;49715;42.386;20.434;2023-02-01T08:06:15;21.27;;;12.23;;
63567;SDS011;49715;42.386;20.434;2023-02-01T08:08:41;13.50;;;8.90;;
63567;SDS011;49715;42.386;20.434;2023-02-01T08:11:11;12.25;;;6.85;;
63567;SDS011;49715;42.386;20.434;2023-02-01T08:13:37;12.68;;;6.47;;
63567;SDS011;49715;42.386;20.434;2023-02-01T08:16:04;12.60;;;7.27;;
63567;SDS011;49715;42.386;20.434;2023-02-01T08:18:33;9.35;;;6.03;;
63567;SDS011;49715;42.386;20.434;2023-02-01T08:21:04;11.35;;;7.65;;
63567;SDS011;49715;42.386;20.434;2023-02-01T08:23:36;14.98;;;10.35;;
63567;SDS011;49715;42.386;20.434;2023-02-01T08:26:09;15.60;;;9.85;;
63567;SDS011;49715;42.386;20.434;2023-02-01T08:28:41;11.43;;;7.55;;
63567;SDS011;49715;42.386;20.434;2023-02-01T08:31:10;10.07;;;6.35;;
63567;SDS011;49715;42.386;20.434;2023-02-01T08:33:40;12.80;;;6.28;;
63567;SDS011;49715;42.386;20.434;2023-02-01T08:36:08;12.43;;;6.28;;
63567;SDS011;49715;42.386;20.434;2023-02-01T08:38:37;11.82;;;6.35;;
63567;SDS011;49715;42.386;20.434;2023-02-01T08:41:08;10.95;;;6.47;;
63567;SDS011;49715;42.386;20.434;2023-02-01T08:43:36;10.40;;;6.95;;
63567;SDS011;49715;42.386;20.434;2023-02-01T08:46:03;11.27;;;7.03;;
63567;SDS011;49715;42.386;20.434;2023-02-01T08:48:31;12.70;;;8.80;;
63567;SDS011;49715;42.386;20.434;2023-02-01T08:51:02;13.88;;;10.50;;
63567;SDS011;49715;42.386;20.434;2023-02-01T08:53:31;18.52;;;11.02;;
63567;SDS011;49715;42.386;20.434;2023-02-01T08:55:57;13.95;;;10.15;;
63567;SDS011;49715;42.386;20.434;2023-02-01T08:58:24;13.10;;;9.25;;
63567;SDS011;49715;42.386;20.434;2023-02-01T09:00:51;10.27;;;8.02;;
63567;SDS011;49715;42.386;20.434;2023-02-01T09:03:17;13.63;;;8.17;;
63567;SDS011;49715;42.386;20.434;2023-02-01T09:05:44;17.20;;;7.28;;
63567;SDS011;49715;42.386;20.434;2023-02-01T09:08:11;8.70;;;5.32;;
63567;SDS011;49715;42.386;20.434;2023-02-01T09:10:41;6.28;;;4.63;;
63567;SDS011;49715;42.386;20.434;2023-02-01T09:13:08;6.70;;;4.93;;
63567;SDS011;49715;42.386;20.434;2023-02-01T09:15:35;9.88;;;5.18;;
63567;SDS011;49715;42.386;20.434;2023-02-01T09:18:02;7.70;;;5.28;;
63567;SDS011;49715;42.386;20.434;2023-02-01T09:20:29;9.10;;;6.05;;
63567;SDS011;49715;42.386;20.434;2023-02-01T09:22:55;7.63;;;5.47;;
63567;SDS011;49715;42.386;20.434;2023-02-01T09:25:22;12.80;;;7.43;;
63567;SDS011;49715;42.386;20.434;2023-02-01T09:27:48;21.03;;;9.90;;
63567;SDS011;49715;42.386;20.434;2023-02-01T09:30:14;23.57;;;12.33;;
63567;SDS011;49715;42.386;20.434;2023-02-01T09:32:41;26.45;;;14.68;;
63567;SDS011;49715;42.386;20.434;2023-02-01T09:35:07;20.23;;;9.83;;
63567;SDS011;49715;42.386;20.434;2023-02-01T09:37:34;17.40;;;10.05;;
63567;SDS011;49715;42.386;20.434;2023-02-01T09:40:01;12.45;;;7.93;;
63567;SDS011;49715;42.386;20.434;2023-02-01T09:47:57;8.07;;;4.10;;
63567;SDS011;49715;42.386;20.434;2023-02-01T09:50:33;9.05;;;3.83;;
63567;SDS011;49715;42.386;20.434;2023-02-01T09:53:12;9.80;;;4.55;;
63567;SDS011;49715;42.386;20.434;2023-02-01T09:55:49;8.27;;;4.90;;
63567;SDS011;49715;42.386;20.434;2023-02-01T09:58:22;8.32;;;5.13;;
63567;SDS011;49715;42.386;20.434;2023-02-01T10:01:02;8.75;;;6.22;;
63567;SDS011;49715;42.386;20.434;2023-02-01T10:03:30;10.77;;;5.90;;
63567;SDS011;49715;42.386;20.434;2023-02-01T10:11:51;18.33;;;8.65;;
63567;SDS011;49715;42.386;20.434;2023-02-01T10:28:48;9.68;;;6.50;;
63567;SDS011;49715;42.386;20.434;2023-02-01T10:31:18;17.85;;;9.15;;
63567;SDS011;49715;42.386;20.434;2023-02-01T10:33:49;12.70;;;9.13;;
63567;SDS011;49715;42.386;20.434;2023-02-01T10:36:23;12.57;;;9.23;;
63567;SDS011;49715;42.386;20.434;2023-02-01T10:39:08;13.93;;;8.15;;
63567;SDS011;49715;42.386;20.434;2023-02-01T10:41:39;18.88;;;8.88;;
63567;SDS011;49715;42.386;20.434;2023-02-01T10:44:11;18.88;;;9.00;;
63567;SDS011;49715;42.386;20.434;2023-02-01T10:46:40;12.35;;;7.50;;
63567;SDS011;49715;42.386;20.434;2023-02-01T10:49:16;11.40;;;6.82;;
63567;SDS011;49715;42.386;20.434;2023-02-01T10:51:47;11.20;;;6.22;;
63567;SDS011;49715;42.386;20.434;2023-02-01T10:54:19;11.63;;;6.30;;
63567;SDS011;49715;42.386;20.434;2023-02-01T10:56:48;16.02;;;6.68;;
63567;SDS011;49715;42.386;20.434;2023-02-01T10:59:17;18.00;;;8.70;;
63567;SDS011;49715;42.386;20.434;2023-02-01T11:01:50;16.27;;;9.25;;
63567;SDS011;49715;42.386;20.434;2023-02-01T11:04:25;17.20;;;8.50;;
63567;SDS011;49715;42.386;20.434;2023-02-01T11:06:53;13.25;;;7.70;;
63567;SDS011;49715;42.386;20.434;2023-02-01T11:09:34;15.93;;;9.25;;
63567;SDS011;49715;42.386;20.434;2023-02-01T11:12:10;14.70;;;7.80;;
63567;SDS011;49715;42.386;20.434;2023-02-01T11:14:56;4.72;;;3.15;;
63567;SDS011;49715;42.386;20.434;2023-02-01T11:17:45;9.85;;;5.30;;
63567;SDS011;49715;42.386;20.434;2023-02-01T11:20:16;6.97;;;4.13;;
63567;SDS011;49715;42.386;20.434;2023-02-01T11:22:54;4.30;;;3.00;;
63567;SDS011;49715;42.386;20.434;2023-02-01T11:25:22;6.63;;;2.50;;
63567;SDS011;49715;42.386;20.434;2023-02-01T11:27:50;3.67;;;2.25;;
63567;SDS011;49715;42.386;20.434;2023-02-01T11:30:32;1.50;;;0.75;;
63567;SDS011;49715;42.386;20.434;2023-02-01T11:33:04;2.83;;;1.23;;
63567;SDS011;49715;42.386;20.434;2023-02-01T11:35:32;1.80;;;1.30;;
63567;SDS011;49715;42.386;20.434;2023-02-01T11:38:10;4.70;;;2.17;;
63567;SDS011;49715;42.386;20.434;2023-02-01T11:40:45;2.92;;;2.20;;
63567;SDS011;49715;42.386;20.434;2023-02-01T11:45:41;4.78;;;2.13;;
63567;SDS011;49715;42.386;20.434;2023-02-01T11:48:20;4.20;;;1.80;;
63567;SDS011;49715;42.386;20.434;2023-02-01T11:53:36;3.28;;;2.08;;
63567;SDS011;49715;42.386;20.434;2023-02-01T11:56:12;2.47;;;1.20;;
63567;SDS011;49715;42.386;20.434;2023-02-01T12:01:33;5.88;;;2.22;;
63567;SDS011;49715;42.386;20.434;2023-02-01T12:07:11;8.18;;;3.92;;
63567;SDS011;49715;42.386;20.434;2023-02-01T12:33:39;5.45;;;2.40;;
63567;SDS011;49715;42.386;20.434;2023-02-01T12:36:10;3.08;;;1.90;;
63567;SDS011;49715;42.386;20.434;2023-02-01T12:46:41;3.55;;;1.90;;
63567;SDS011;49715;42.386;20.434;2023-02-01T12:49:15;3.15;;;1.67;;
63567;SDS011;49715;42.386;20.434;2023-02-01T12:52:03;3.67;;;2.10;;
63567;SDS011;49715;42.386;20.434;2023-02-01T12:54:39;2.83;;;1.58;;
63567;SDS011;49715;42.386;20.434;2023-02-01T12:57:21;3.33;;;1.75;;
63567;SDS011;49715;42.386;20.434;2023-02-01T12:59:56;3.35;;;2.63;;
63567;SDS011;49715;42.386;20.434;2023-02-01T13:02:42;2.28;;;1.40;;
63567;SDS011;49715;42.386;20.434;2023-02-01T13:08:45;4.25;;;1.60;;
63567;SDS011;49715;42.386;20.434;2023-02-01T13:11:19;2.55;;;1.40;;
63567;SDS011;49715;42.386;20.434;2023-02-01T13:13:56;2.42;;;1.27;;
63567;SDS011;49715;42.386;20.434;2023-02-01T13:16:30;3.47;;;2.40;;
63567;SDS011;49715;42.386;20.434;2023-02-01T13:19:14;3.65;;;2.30;;
63567;SDS011;49715;42.386;20.434;2023-02-01T13:21:49;4.93;;;2.85;;
63567;SDS011;49715;42.386;20.434;2023-02-01T13:24:32;4.32;;;2.40;;
63567;SDS011;49715;42.386;20.434;2023-02-01T13:27:05;6.45;;;3.50;;
63567;SDS011;49715;42.386;20.434;2023-02-01T13:29:35;6.93;;;3.38;;
63567;SDS011;49715;42.386;20.434;2023-02-01T13:40:23;5.97;;;3.35;;
63567;SDS011;49715;42.386;20.434;2023-02-01T13:42:57;4.35;;;3.30;;
63567;SDS011;49715;42.386;20.434;2023-02-01T13:45:28;4.78;;;3.30;;
63567;SDS011;49715;42.386;20.434;2023-02-01T13:48:01;7.35;;;3.25;;
63567;SDS011;49715;42.386;20.434;2023-02-01T13:53:03;7.03;;;2.90;;
63567;SDS011;49715;42.386;20.434;2023-02-01T13:55:46;7.85;;;4.50;;
63567;SDS011;49715;42.386;20.434;2023-02-01T14:19:37;7.63;;;4.30;;
63567;SDS011;49715;42.386;20.434;2023-02-01T14:22:47;10.02;;;5.22;;
63567;SDS011;49715;42.386;20.434;2023-02-01T14:24:59;4.93;;;2.97;;
63567;SDS011;49715;42.386;20.434;2023-02-01T14:27:30;4.40;;;2.97;;
63567;SDS011;49715;42.386;20.434;2023-02-01T14:30:02;2.95;;;2.00;;
63567;SDS011;49715;42.386;20.434;2023-02-01T14:32:35;2.50;;;1.67;;
63567;SDS011;49715;42.386;20.434;2023-02-01T14:35:12;11.20;;;7.30;;
63567;SDS011;49715;42.386;20.434;2023-02-01T14:37:50;4.82;;;3.15;;
63567;SDS011;49715;42.386;20.434;2023-02-01T14:40:20;4.45;;;2.08;;
63567;SDS011;49715;42.386;20.434;2023-02-01T14:42:51;8.68;;;5.00;;
63567;SDS011;49715;42.386;20.434;2023-02-01T14:47:49;9.70;;;6.40;;
63567;SDS011;49715;42.386;20.434;2023-02-01T14:55:42;7.25;;;5.82;;
63567;SDS011;49715;42.386;20.434;2023-02-01T14:58:32;12.15;;;6.93;;
63567;SDS011;49715;42.386;20.434;2023-02-01T15:04:03;15.57;;;9.60;;
63567;SDS011;49715;42.386;20.434;2023-02-01T15:07:09;16.05;;;10.60;;
63567;SDS011;49715;42.386;20.434;2023-02-01T15:09:38;17.02;;;11.35;;
63567;SDS011;49715;42.386;20.434;2023-02-01T15:14:37;15.40;;;9.05;;
63567;SDS011;49715;42.386;20.434;2023-02-01T15:20:04;17.00;;;11.55;;
63567;SDS011;49715;42.386;20.434;2023-02-01T15:22:54;21.77;;;13.45;;
63567;SDS011;49715;42.386;20.434;2023-02-01T15:25:45;21.65;;;12.57;;
63567;SDS011;49715;42.386;20.434;2023-02-01T15:28:13;23.70;;;16.63;;
63567;SDS011;49715;42.386;20.434;2023-02-01T15:30:51;27.90;;;14.80;;
63567;SDS011;49715;42.386;20.434;2023-02-01T15:33:28;24.67;;;15.55;;
63567;SDS011;49715;42.386;20.434;2023-02-01T15:38:36;16.90;;;10.30;;
63567;SDS011;49715;42.386;20.434;2023-02-01T15:41:13;20.23;;;13.90;;
63567;SDS011;49715;42.386;20.434;2023-02-01T15:43:47;26.77;;;16.52;;
63567;SDS011;49715;42.386;20.434;2023-02-01T15:48:59;20.58;;;11.05;;
63567;SDS011;49715;42.386;20.434;2023-02-01T15:51:27;25.58;;;16.65;;
63567;SDS011;49715;42.386;20.434;2023-02-01T15:53:57;25.60;;;14.85;;
63567;SDS011;49715;42.386;20.434;2023-02-01T15:56:27;24.20;;;13.25;;
63567;SDS011;49715;42.386;20.434;2023-02-01T15:59:00;19.33;;;11.23;;
63567;SDS011;49715;42.386;20.434;2023-02-01T16:01:29;24.85;;;12.10;;
63567;SDS011;49715;42.386;20.434;2023-02-01T16:09:16;8.60;;;4.80;;
63567;SDS011;49715;42.386;20.434;2023-02-01T16:11:58;6.40;;;3.38;;
63567;SDS011;49715;42.386;20.434;2023-02-01T16:14:26;6.68;;;3.28;;
63567;SDS011;49715;42.386;20.434;2023-02-01T16:16:54;3.85;;;1.90;;
63567;SDS011;49715;42.386;20.434;2023-02-01T16:19:22;4.85;;;3.05;;
63567;SDS011;49715;42.386;20.434;2023-02-01T16:21:54;5.05;;;2.50;;
63567;SDS011;49715;42.386;20.434;2023-02-01T16:24:21;5.03;;;2.90;;
63567;SDS011;49715;42.386;20.434;2023-02-01T16:26:50;6.85;;;2.50;;
63567;SDS011;49715;42.386;20.434;2023-02-01T16:29:17;5.60;;;2.97;;
63567;SDS011;49715;42.386;20.434;2023-02-01T16:31:43;6.03;;;3.33;;
63567;SDS011;49715;42.386;20.434;2023-02-01T16:34:14;9.43;;;5.88;;
63567;SDS011;49715;42.386;20.434;2023-02-01T16:36:48;6.50;;;3.65;;
63567;SDS011;49715;42.386;20.434;2023-02-01T16:39:21;7.45;;;4.13;;
63567;SDS011;49715;42.386;20.434;2023-02-01T16:41:47;5.87;;;3.10;;
63567;SDS011;49715;42.386;20.434;2023-02-01T16:44:14;5.22;;;3.40;;
63567;SDS011;49715;42.386;20.434;2023-02-01T16:46:42;12.95;;;7.68;;
63567;SDS011;49715;42.386;20.434;2023-02-01T16:49:21;7.50;;;5.10;;
63567;SDS011;49715;42.386;20.434;2023-02-01T16:51:50;6.70;;;3.97;;
63567;SDS011;49715;42.386;20.434;2023-02-01T16:54:19;4.65;;;2.92;;
63567;SDS011;49715;42.386;20.434;2023-02-01T16:56:49;8.80;;;3.45;;
63567;SDS011;49715;42.386;20.434;2023-02-01T16:59:16;8.25;;;4.13;;
63567;SDS011;49715;42.386;20.434;2023-02-01T17:01:42;14.20;;;8.50;;
63567;SDS011;49715;42.386;20.434;2023-02-01T17:04:09;9.65;;;6.88;;
63567;SDS011;49715;42.386;20.434;2023-02-01T17:06:37;16.27;;;10.88;;
63567;SDS011;49715;42.386;20.434;2023-02-01T17:09:04;14.68;;;10.55;;
63567;SDS011;49715;42.386;20.434;2023-02-01T17:11:31;14.30;;;8.18;;
63567;SDS011;49715;42.386;20.434;2023-02-01T17:14:17;14.50;;;9.52;;
63567;SDS011;49715;42.386;20.434;2023-02-01T17:16:46;9.20;;;5.90;;
63567;SDS011;49715;42.386;20.434;2023-02-01T17:19:16;8.45;;;5.28;;
63567;SDS011;49715;42.386;20.434;2023-02-01T17:21:46;8.95;;;4.57;;
63567;SDS011;49715;42.386;20.434;2023-02-01T17:24:34;9.68;;;4.72;;
63567;SDS011;49715;42.386;20.434;2023-02-01T17:27:00;10.23;;;5.83;;